LKVO

Vodochody Airport

Vodochoky, Czech Republic
METAR LKVO 221400Z 09007KT 040V130 CAVOK 03/M10 Q1020
Observed Flight Rules
Feb-22 @ 14:00 UTC (2 hours ago) Visual Flight Rules
Wind Visibility Clouds
90° at 7 knots 10,000+ meters
  • Clear skies
Temperatures Readings
Current 3°C / 37°F
Dewpoint -10°C / 14°F
Humidity 38%
Altimeter 30.12" Hg
Pressure 1020 hPa
Elevation 280
METAR LKVO 221400Z 09007KT 040V130 CAVOK 03/M10 Q1020
Observed Flight Rules
Feb-22 @ 14:00 UTC
(2 hours ago)
VFR
Wind Visibility
90° at 7 knots 10,000+ meters
Clouds
  • Clear skies
Temperature Dewpoint
3°C / 37°F -10°C / 14°F
Humidity Altimeter Pressure
38% 30.12" Hg 1020 hPa